createdAt,value
2023-03-21T00:02:35.569Z,76.21
2023-03-21T00:07:32.511Z,76.81
2023-03-21T00:12:25.903Z,77.28
2023-03-21T00:17:22.460Z,77.94
2023-03-21T00:22:16.086Z,78.40
2023-03-21T00:27:38.390Z,79.50
2023-03-21T00:32:24.890Z,79.40
2023-03-21T00:37:19.140Z,79.99
2023-03-21T00:42:13.816Z,80.18
2023-03-21T00:47:08.227Z,79.50
2023-03-21T00:52:14.685Z,79.39
2023-03-21T00:57:10.220Z,78.89
2023-03-21T01:02:07.476Z,79.06
2023-03-21T01:07:01.239Z,78.62
2023-03-21T01:11:56.509Z,76.58
2023-03-21T01:16:50.402Z,76.55
2023-03-21T01:21:48.076Z,75.83
2023-03-21T01:26:43.939Z,76.30
2023-03-21T01:31:37.260Z,77.15
2023-03-21T01:36:31.948Z,77.88
2023-03-21T01:41:44.298Z,78.07
2023-03-21T01:46:56.999Z,78.28
2023-03-21T01:52:12.804Z,78.11
2023-03-21T01:57:17.785Z,78.91
2023-03-21T02:02:20.879Z,78.74
2023-03-21T02:07:37.009Z,79.03
2023-03-21T02:12:33.733Z,81.00
2023-03-21T02:17:36.967Z,81.31
2023-03-21T02:23:05.037Z,80.82
2023-03-21T02:28:09.546Z,80.87
2023-03-21T02:33:30.145Z,81.55
2023-03-21T02:38:30.481Z,82.63
2023-03-21T02:43:32.392Z,83.15
2023-03-21T02:48:48.136Z,83.20
2023-03-21T02:54:13.019Z,83.13
2023-03-21T02:59:08.248Z,83.04
2023-03-21T03:04:02.484Z,84.05
2023-03-21T03:09:16.064Z,84.26
2023-03-21T03:14:56.525Z,84.70
2023-03-21T03:20:24.116Z,85.04
2023-03-21T03:25:32.657Z,85.34
2023-03-21T03:30:42.251Z,85.58
2023-03-21T03:35:41.214Z,84.87
2023-03-21T03:40:42.373Z,84.58
2023-03-21T03:45:48.756Z,83.19
2023-03-21T03:50:48.524Z,83.36
2023-03-21T03:55:48.710Z,83.35
2023-03-21T04:00:43.849Z,82.95
2023-03-21T04:05:37.308Z,82.42
2023-03-21T04:10:31.778Z,82.58
2023-03-21T04:15:28.386Z,82.16
2023-03-21T04:20:43.492Z,82.50
2023-03-21T04:25:44.656Z,82.67
2023-03-21T04:31:00.258Z,83.11
2023-03-21T04:35:59.085Z,83.10
2023-03-21T04:40:57.895Z,83.20
2023-03-21T04:45:53.554Z,82.42
2023-03-21T04:50:47.355Z,82.42
2023-03-21T04:55:40.686Z,82.19
2023-03-21T05:00:37.606Z,82.38
2023-03-21T05:05:33.850Z,82.12
2023-03-21T05:10:27.102Z,82.12
2023-03-21T05:15:23.066Z,81.63
2023-03-21T05:20:20.286Z,82.00
2023-03-21T05:25:18.184Z,82.21
2023-03-21T05:30:25.171Z,82.03
2023-03-21T05:35:24.495Z,81.57
2023-03-21T05:40:21.345Z,81.69
2023-03-21T05:45:15.405Z,81.57
2023-03-21T05:50:11.479Z,81.71
2023-03-21T05:55:07.613Z,82.45
2023-03-21T06:00:03.307Z,82.65
2023-03-21T06:05:09.084Z,82.00
2023-03-21T06:10:02.652Z,81.73
2023-03-21T06:14:58.862Z,81.25
2023-03-21T06:20:01.204Z,81.85
2023-03-21T06:25:10.359Z,81.27
2023-03-21T06:30:05.042Z,81.29
2023-03-21T06:35:05.903Z,80.86
2023-03-21T06:39:59.397Z,80.30
2023-03-21T06:44:52.707Z,79.68
2023-03-21T06:49:46.031Z,79.21
2023-03-21T06:54:41.525Z,78.70
2023-03-21T06:59:39.057Z,78.24
2023-03-21T07:05:01.142Z,77.45
2023-03-21T07:09:57.738Z,77.30
2023-03-21T07:14:54.327Z,75.82
2023-03-21T07:19:47.553Z,75.81
2023-03-21T07:24:43.479Z,74.44
2023-03-21T07:29:38.129Z,75.00
2023-03-21T07:34:33.903Z,72.72
2023-03-21T07:39:29.919Z,72.63
2023-03-21T07:44:23.411Z,71.69
2023-03-21T07:49:34.146Z,71.02
2023-03-21T07:54:28.815Z,70.30
2023-03-21T07:59:22.333Z,68.45
2023-03-21T08:04:18.604Z,67.31
2023-03-21T08:09:13.140Z,66.62
2023-03-21T08:14:06.289Z,66.72
2023-03-21T08:18:59.603Z,67.09
2023-03-21T08:23:55.386Z,65.70
2023-03-21T08:28:50.222Z,65.68
2023-03-21T08:33:43.529Z,61.74
2023-03-21T08:38:37.131Z,62.29
2023-03-21T08:43:30.553Z,62.42
2023-03-21T08:48:25.718Z,61.07
2023-03-21T08:53:22.266Z,57.94
2023-03-21T08:58:15.598Z,54.90
2023-03-21T09:03:11.215Z,53.62
2023-03-21T09:08:06.600Z,51.46
2023-03-21T09:12:59.926Z,51.61
2023-03-21T09:17:54.490Z,49.73
2023-03-21T09:22:48.977Z,47.05
2023-03-21T09:27:47.171Z,46.48
2023-03-21T09:32:43.007Z,45.68
2023-03-21T09:37:38.435Z,44.51
2023-03-21T09:42:41.797Z,47.36
2023-03-21T09:47:45.500Z,45.12
2023-03-21T09:52:48.230Z,45.03
2023-03-21T09:57:45.885Z,45.66
2023-03-21T10:02:45.677Z,46.81
2023-03-21T10:07:44.674Z,48.55
2023-03-21T10:12:38.000Z,49.74
2023-03-21T10:17:35.218Z,49.65
2023-03-21T10:22:29.725Z,49.45
2023-03-21T10:27:22.848Z,52.33
2023-03-21T10:32:19.457Z,50.27
2023-03-21T10:37:13.973Z,51.37
2023-03-21T10:42:18.668Z,51.07
2023-03-21T10:47:11.979Z,51.34
2023-03-21T10:52:08.559Z,53.14
2023-03-21T10:57:05.969Z,53.64
2023-03-21T11:02:00.604Z,53.58
2023-03-21T11:06:57.018Z,54.02
2023-03-21T11:11:55.932Z,53.86
2023-03-21T11:16:52.304Z,53.55
2023-03-21T11:21:47.351Z,52.99
2023-03-21T11:26:43.602Z,54.71
2023-03-21T11:31:41.303Z,54.77
2023-03-21T11:36:39.355Z,53.81
2023-03-21T11:41:35.718Z,54.36
2023-03-21T11:46:33.358Z,53.39
2023-03-21T11:51:34.849Z,53.14
2023-03-21T11:56:31.282Z,54.28
2023-03-21T12:01:33.496Z,54.30
2023-03-21T12:06:31.727Z,54.21
2023-03-21T12:11:37.353Z,55.40
2023-03-21T12:16:44.669Z,56.69
2023-03-21T12:21:48.101Z,57.32
2023-03-21T12:26:53.383Z,58.91
2023-03-21T12:31:59.355Z,58.63
2023-03-21T12:37:14.469Z,58.96
2023-03-21T12:42:25.718Z,59.88
2023-03-21T12:47:24.775Z,59.82
2023-03-21T12:52:21.594Z,58.17
2023-03-21T12:57:21.388Z,57.55
2023-03-21T13:02:27.934Z,56.36
2023-03-21T13:07:25.327Z,56.65
2023-03-21T13:12:29.828Z,55.85
2023-03-21T13:17:31.510Z,56.82
2023-03-21T13:22:29.391Z,56.12
2023-03-21T13:27:29.753Z,55.77
2023-03-21T13:32:30.906Z,56.24
2023-03-21T13:37:28.092Z,56.16
2023-03-21T13:42:31.910Z,55.99
2023-03-21T13:47:40.632Z,56.29
2023-03-21T13:52:33.755Z,56.46
2023-03-21T13:57:40.322Z,56.26
2023-03-21T14:02:39.652Z,56.57
2023-03-21T14:07:35.041Z,56.31
2023-03-21T14:12:30.525Z,56.16
2023-03-21T14:17:26.606Z,56.09
2023-03-21T14:22:21.340Z,54.50
2023-03-21T14:27:15.030Z,54.47
2023-03-21T14:32:19.118Z,54.81
2023-03-21T14:37:12.790Z,55.51
2023-03-21T14:42:09.415Z,55.74
2023-03-21T14:47:03.984Z,55.67
2023-03-21T14:52:00.149Z,57.08
2023-03-21T14:57:00.121Z,55.83
2023-03-21T15:01:56.016Z,57.10
2023-03-21T15:06:57.822Z,57.21
2023-03-21T15:11:53.617Z,58.49
2023-03-21T15:16:47.829Z,59.17
2023-03-21T15:21:56.200Z,60.26
2023-03-21T15:26:50.638Z,60.66
2023-03-21T15:31:45.774Z,60.97
2023-03-21T15:36:48.061Z,61.12
2023-03-21T15:41:43.154Z,61.24
2023-03-21T15:46:43.196Z,61.16
2023-03-21T15:51:42.679Z,61.70
2023-03-21T15:56:37.538Z,61.17
2023-03-21T16:01:35.018Z,61.52
2023-03-21T16:07:02.658Z,62.00
2023-03-21T16:12:02.778Z,63.08
2023-03-21T16:16:59.362Z,63.28
2023-03-21T16:21:53.524Z,64.11
2023-03-21T16:27:00.156Z,63.72
2023-03-21T16:32:00.806Z,64.22
2023-03-21T16:37:04.762Z,65.67
2023-03-21T16:42:01.484Z,65.46
2023-03-21T16:46:55.019Z,66.48
2023-03-21T16:51:49.701Z,66.44
2023-03-21T16:56:50.492Z,66.33
2023-03-21T17:01:52.164Z,67.59
2023-03-21T17:06:47.597Z,68.63
2023-03-21T17:11:51.723Z,69.07
2023-03-21T17:16:47.879Z,69.92
2023-03-21T17:21:41.573Z,70.65
2023-03-21T17:26:35.034Z,70.56
2023-03-21T17:31:47.574Z,71.28
2023-03-21T17:36:45.041Z,71.38
2023-03-21T17:41:38.499Z,71.89
2023-03-21T17:46:37.926Z,72.01
2023-03-21T17:51:33.312Z,72.08
2023-03-21T17:56:30.105Z,72.18
2023-03-21T18:01:24.218Z,72.21
2023-03-21T18:06:28.922Z,71.91
2023-03-21T18:11:25.844Z,72.11
2023-03-21T18:16:28.277Z,72.32
2023-03-21T18:21:38.093Z,72.64
2023-03-21T18:26:33.004Z,72.97
2023-03-21T18:31:31.482Z,72.81
2023-03-21T18:36:27.819Z,72.79
2023-03-21T18:41:24.888Z,73.07
2023-03-21T18:46:19.998Z,72.80
2023-03-21T18:51:13.504Z,73.06
2023-03-21T18:56:10.229Z,72.89
2023-03-21T19:01:07.023Z,73.30
2023-03-21T19:06:03.907Z,72.98
2023-03-21T19:11:00.277Z,73.38
2023-03-21T19:15:56.698Z,74.01
2023-03-21T19:20:53.614Z,74.43
2023-03-21T19:25:48.370Z,74.59
2023-03-21T19:30:49.849Z,74.53
2023-03-21T19:35:43.929Z,75.00
2023-03-21T19:40:40.020Z,75.27
2023-03-21T19:45:39.470Z,75.04
2023-03-21T19:50:57.998Z,75.34
2023-03-21T19:55:54.095Z,75.63
2023-03-21T20:00:49.397Z,76.09
2023-03-21T20:05:45.256Z,76.28
2023-03-21T20:10:38.928Z,76.39
2023-03-21T20:15:32.361Z,76.62
2023-03-21T20:20:28.093Z,76.75
2023-03-21T20:25:23.191Z,76.48
2023-03-21T20:30:19.024Z,76.49
2023-03-21T20:35:21.149Z,76.47
2023-03-21T20:40:26.674Z,75.86
2023-03-21T20:45:20.775Z,75.91
2023-03-21T20:50:15.765Z,76.02
2023-03-21T20:55:11.631Z,76.06
2023-03-21T21:00:13.786Z,76.58
2023-03-21T21:05:25.325Z,77.33
2023-03-21T21:10:22.453Z,77.64
2023-03-21T21:15:19.686Z,78.33
2023-03-21T21:20:20.663Z,79.35
2023-03-21T21:25:16.050Z,80.39
2023-03-21T21:30:20.373Z,81.65
2023-03-21T21:35:13.762Z,82.31
2023-03-21T21:40:13.017Z,84.51
2023-03-21T21:45:08.691Z,87.03
2023-03-21T21:50:03.480Z,89.04
2023-03-21T21:54:56.834Z,90.40
2023-03-21T21:59:54.281Z,91.64
2023-03-21T22:04:47.525Z,92.65
2023-03-21T22:09:42.438Z,93.54
2023-03-21T22:14:36.019Z,94.25
2023-03-21T22:19:32.616Z,94.58
2023-03-21T22:24:26.157Z,95.39
2023-03-21T22:29:20.896Z,95.26
2023-03-21T22:34:14.089Z,95.22
2023-03-21T22:39:07.430Z,95.79
2023-03-21T22:44:00.892Z,96.17
2023-03-21T22:48:55.707Z,96.56
2023-03-21T22:53:51.304Z,97.18
2023-03-21T22:58:44.501Z,98.08
2023-03-21T23:03:38.402Z,98.46
2023-03-21T23:08:32.965Z,99.07
2023-03-21T23:13:26.644Z,99.94
2023-03-21T23:18:19.912Z,99.63
2023-03-21T23:23:13.143Z,99.62
2023-03-21T23:28:08.337Z,99.45
2023-03-21T23:33:01.512Z,100.00
2023-03-21T23:37:54.614Z,100.00
2023-03-21T23:42:47.740Z,100.00
2023-03-21T23:47:42.337Z,100.00
2023-03-21T23:52:35.785Z,100.00
2023-03-21T23:57:29.010Z,100.00
